Charqueada, Brazil
Current Conditions -  °F | °C
As of 8:00 PM on Monday 20 Oct 2014 (Local Time) from SBYS Reporting Station
Broken Clouds Broken Clouds  
Wind Chill: 73°   Ceiling: 10000
Heat Index: 73°   Visibility: 6mi
Dew Point: 63°   Wind: 6mph
Humidity: 69%   Direction: 170°S
Pressure: 30"   Gusts: NA
Location:  22.51°S, 47.78°W
Report Text: SBYS 202200Z 17005KT 9999 FEW035 BKN100 23/17 Q1016
Loading
Personal Weather Stations






























Interactive Weather Map
Tropical Storm Tracking
New forecast layout! Learn more

10-Day Weather Forecast

Advertisements
Track Severe Weather on mobile